sensor_id;sensor_type;location;lat;lon;timestamp;pressure;altitude;pressure_sealevel;temperature
69007;BMP180;56061;51.748;19.620;2023-03-29T00:02:23;99418.80;;;-1.80
69007;BMP180;56061;51.748;19.620;2023-03-29T00:04:56;99423.80;;;-1.80
69007;BMP180;56061;51.748;19.620;2023-03-29T00:07:23;99425.80;;;-1.90
69007;BMP180;56061;51.748;19.620;2023-03-29T00:09:51;99429.40;;;-1.80
69007;BMP180;56061;51.748;19.620;2023-03-29T00:12:18;99431.40;;;-1.90
69007;BMP180;56061;51.748;19.620;2023-03-29T00:14:44;99433.00;;;-1.90
69007;BMP180;56061;51.748;19.620;2023-03-29T00:17:11;99431.80;;;-1.90
69007;BMP180;56061;51.748;19.620;2023-03-29T00:19:38;99438.00;;;-1.90
69007;BMP180;56061;51.748;19.620;2023-03-29T00:22:04;99440.20;;;-1.90
69007;BMP180;56061;51.748;19.620;2023-03-29T00:24:33;99437.80;;;-2.00
69007;BMP180;56061;51.748;19.620;2023-03-29T00:27:00;99437.80;;;-2.00
69007;BMP180;56061;51.748;19.620;2023-03-29T00:29:27;99437.60;;;-2.00
69007;BMP180;56061;51.748;19.620;2023-03-29T00:31:53;99436.60;;;-2.00
69007;BMP180;56061;51.748;19.620;2023-03-29T00:34:23;99439.60;;;-2.00
69007;BMP180;56061;51.748;19.620;2023-03-29T00:36:49;99436.80;;;-2.06
69007;BMP180;56061;51.748;19.620;2023-03-29T00:39:19;99435.20;;;-2.10
69007;BMP180;56061;51.748;19.620;2023-03-29T00:41:48;99441.20;;;-2.20
69007;BMP180;56061;51.748;19.620;2023-03-29T00:45:00;99439.80;;;-2.20
69007;BMP180;56061;51.748;19.620;2023-03-29T00:47:44;99441.20;;;-2.20
69007;BMP180;56061;51.748;19.620;2023-03-29T00:50:32;99442.00;;;-2.20
69007;BMP180;56061;51.748;19.620;2023-03-29T01:01:21;99432.80;;;-2.20
69007;BMP180;56061;51.748;19.620;2023-03-29T01:04:00;99430.20;;;-2.20
69007;BMP180;56061;51.748;19.620;2023-03-29T01:06:33;99429.20;;;-2.24
69007;BMP180;56061;51.748;19.620;2023-03-29T01:09:04;99427.80;;;-2.30
69007;BMP180;56061;51.748;19.620;2023-03-29T01:11:45;99422.40;;;-2.30
69007;BMP180;56061;51.748;19.620;2023-03-29T01:14:21;99420.00;;;-2.40
69007;BMP180;56061;51.748;19.620;2023-03-29T01:16:51;99422.00;;;-2.40
69007;BMP180;56061;51.748;19.620;2023-03-29T01:19:24;99420.20;;;-2.40
69007;BMP180;56061;51.748;19.620;2023-03-29T01:22:02;99419.80;;;-2.40
69007;BMP180;56061;51.748;19.620;2023-03-29T01:30:15;99420.80;;;-2.50
69007;BMP180;56061;51.748;19.620;2023-03-29T01:33:33;99419.20;;;-2.50
69007;BMP180;56061;51.748;19.620;2023-03-29T01:36:15;99414.60;;;-2.60
69007;BMP180;56061;51.748;19.620;2023-03-29T01:38:51;99408.40;;;-2.66
69007;BMP180;56061;51.748;19.620;2023-03-29T01:41:20;99408.20;;;-2.70
69007;BMP180;56061;51.748;19.620;2023-03-29T01:43:58;99408.00;;;-2.70
69007;BMP180;56061;51.748;19.620;2023-03-29T01:46:36;99405.60;;;-2.70
69007;BMP180;56061;51.748;19.620;2023-03-29T01:49:39;99406.40;;;-2.80
69007;BMP180;56061;51.748;19.620;2023-03-29T01:52:19;99405.00;;;-2.80
69007;BMP180;56061;51.748;19.620;2023-03-29T01:55:09;99410.00;;;-2.90
69007;BMP180;56061;51.748;19.620;2023-03-29T01:57:41;99410.40;;;-3.10
69007;BMP180;56061;51.748;19.620;2023-03-29T02:00:18;99414.20;;;-3.10
69007;BMP180;56061;51.748;19.620;2023-03-29T02:02:48;99408.00;;;-3.10
69007;BMP180;56061;51.748;19.620;2023-03-29T02:05:18;99408.60;;;-3.10
69007;BMP180;56061;51.748;19.620;2023-03-29T02:07:47;99410.20;;;-3.10
69007;BMP180;56061;51.748;19.620;2023-03-29T02:13:10;99411.40;;;-3.12
69007;BMP180;56061;51.748;19.620;2023-03-29T02:15:37;99414.20;;;-3.18
69007;BMP180;56061;51.748;19.620;2023-03-29T02:18:05;99415.60;;;-3.12
69007;BMP180;56061;51.748;19.620;2023-03-29T02:20:39;99416.20;;;-3.10
69007;BMP180;56061;51.748;19.620;2023-03-29T02:23:15;99415.00;;;-3.10
69007;BMP180;56061;51.748;19.620;2023-03-29T02:25:44;99416.20;;;-3.10
69007;BMP180;56061;51.748;19.620;2023-03-29T02:28:12;99417.60;;;-3.10
69007;BMP180;56061;51.748;19.620;2023-03-29T02:30:58;99417.40;;;-3.10
69007;BMP180;56061;51.748;19.620;2023-03-29T02:33:45;99419.20;;;-3.10
69007;BMP180;56061;51.748;19.620;2023-03-29T02:39:17;99414.80;;;-3.10
69007;BMP180;56061;51.748;19.620;2023-03-29T02:41:49;99419.40;;;-3.10
69007;BMP180;56061;51.748;19.620;2023-03-29T02:44:20;99416.40;;;-3.10
69007;BMP180;56061;51.748;19.620;2023-03-29T02:46:57;99413.80;;;-3.16
69007;BMP180;56061;51.748;19.620;2023-03-29T02:49:25;99416.20;;;-3.18
69007;BMP180;56061;51.748;19.620;2023-03-29T02:51:56;99411.00;;;-3.20
69007;BMP180;56061;51.748;19.620;2023-03-29T02:54:26;99411.40;;;-3.20
69007;BMP180;56061;51.748;19.620;2023-03-29T02:57:00;99413.40;;;-3.20
69007;BMP180;56061;51.748;19.620;2023-03-29T02:59:30;99404.20;;;-3.30
69007;BMP180;56061;51.748;19.620;2023-03-29T03:01:56;99403.60;;;-3.30
69007;BMP180;56061;51.748;19.620;2023-03-29T03:04:24;99404.80;;;-3.30
69007;BMP180;56061;51.748;19.620;2023-03-29T03:06:51;99400.00;;;-3.30
69007;BMP180;56061;51.748;19.620;2023-03-29T03:09:18;99401.60;;;-3.34
69007;BMP180;56061;51.748;19.620;2023-03-29T03:11:44;99400.80;;;-3.40
69007;BMP180;56061;51.748;19.620;2023-03-29T03:14:10;99408.60;;;-3.40
69007;BMP180;56061;51.748;19.620;2023-03-29T03:16:37;99410.40;;;-3.42
69007;BMP180;56061;51.748;19.620;2023-03-29T03:19:04;99406.40;;;-3.46
69007;BMP180;56061;51.748;19.620;2023-03-29T03:21:31;99409.40;;;-3.50
69007;BMP180;56061;51.748;19.620;2023-03-29T03:23:57;99412.80;;;-3.50
69007;BMP180;56061;51.748;19.620;2023-03-29T03:26:24;99408.20;;;-3.50
69007;BMP180;56061;51.748;19.620;2023-03-29T03:28:55;99412.40;;;-3.50
69007;BMP180;56061;51.748;19.620;2023-03-29T03:31:22;99414.00;;;-3.50
69007;BMP180;56061;51.748;19.620;2023-03-29T03:33:48;99410.80;;;-3.60
69007;BMP180;56061;51.748;19.620;2023-03-29T03:36:15;99410.80;;;-3.60
69007;BMP180;56061;51.748;19.620;2023-03-29T03:38:41;99412.80;;;-3.60
69007;BMP180;56061;51.748;19.620;2023-03-29T03:41:09;99413.00;;;-3.70
69007;BMP180;56061;51.748;19.620;2023-03-29T03:43:35;99412.40;;;-3.70
69007;BMP180;56061;51.748;19.620;2023-03-29T03:46:02;99417.20;;;-3.70
69007;BMP180;56061;51.748;19.620;2023-03-29T03:48:28;99418.80;;;-3.80
69007;BMP180;56061;51.748;19.620;2023-03-29T03:50:57;99422.60;;;-3.82
69007;BMP180;56061;51.748;19.620;2023-03-29T03:53:26;99423.20;;;-3.90
69007;BMP180;56061;51.748;19.620;2023-03-29T03:55:54;99420.20;;;-3.90
69007;BMP180;56061;51.748;19.620;2023-03-29T03:58:23;99418.80;;;-4.00
69007;BMP180;56061;51.748;19.620;2023-03-29T04:00:50;99420.00;;;-4.00
69007;BMP180;56061;51.748;19.620;2023-03-29T04:03:17;99429.00;;;-4.00
69007;BMP180;56061;51.748;19.620;2023-03-29T04:05:45;99425.80;;;-4.00
69007;BMP180;56061;51.748;19.620;2023-03-29T04:08:13;99428.80;;;-4.06
69007;BMP180;56061;51.748;19.620;2023-03-29T04:10:40;99437.00;;;-4.10
69007;BMP180;56061;51.748;19.620;2023-03-29T04:13:07;99437.00;;;-4.10
69007;BMP180;56061;51.748;19.620;2023-03-29T04:15:34;99436.80;;;-4.10
69007;BMP180;56061;51.748;19.620;2023-03-29T04:18:04;99438.00;;;-4.10
69007;BMP180;56061;51.748;19.620;2023-03-29T04:20:32;99437.60;;;-4.10
69007;BMP180;56061;51.748;19.620;2023-03-29T04:22:59;99435.60;;;-4.10
69007;BMP180;56061;51.748;19.620;2023-03-29T04:25:25;99433.60;;;-4.10
69007;BMP180;56061;51.748;19.620;2023-03-29T04:27:52;99439.60;;;-4.10
69007;BMP180;56061;51.748;19.620;2023-03-29T04:30:18;99437.80;;;-4.10
69007;BMP180;56061;51.748;19.620;2023-03-29T04:32:44;99433.80;;;-4.10
69007;BMP180;56061;51.748;19.620;2023-03-29T04:35:11;99430.20;;;-4.10
69007;BMP180;56061;51.748;19.620;2023-03-29T04:37:37;99438.60;;;-4.10
69007;BMP180;56061;51.748;19.620;2023-03-29T04:40:07;99430.60;;;-4.10
69007;BMP180;56061;51.748;19.620;2023-03-29T04:42:35;99430.60;;;-4.10
69007;BMP180;56061;51.748;19.620;2023-03-29T04:45:03;99438.20;;;-4.10
69007;BMP180;56061;51.748;19.620;2023-03-29T04:47:32;99432.20;;;-4.12
69007;BMP180;56061;51.748;19.620;2023-03-29T04:50:02;99429.00;;;-4.10
69007;BMP180;56061;51.748;19.620;2023-03-29T04:52:28;99432.60;;;-4.10
69007;BMP180;56061;51.748;19.620;2023-03-29T04:54:59;99435.00;;;-4.10
69007;BMP180;56061;51.748;19.620;2023-03-29T04:57:27;99433.00;;;-4.10
69007;BMP180;56061;51.748;19.620;2023-03-29T04:59:54;99425.20;;;-4.10
69007;BMP180;56061;51.748;19.620;2023-03-29T05:02:22;99431.20;;;-4.10
69007;BMP180;56061;51.748;19.620;2023-03-29T05:04:48;99432.20;;;-4.10
69007;BMP180;56061;51.748;19.620;2023-03-29T05:07:15;99435.20;;;-4.00
69007;BMP180;56061;51.748;19.620;2023-03-29T05:09:43;99433.40;;;-4.00
69007;BMP180;56061;51.748;19.620;2023-03-29T05:12:09;99433.00;;;-4.00
69007;BMP180;56061;51.748;19.620;2023-03-29T05:14:36;99434.20;;;-3.90
69007;BMP180;56061;51.748;19.620;2023-03-29T05:17:02;99430.80;;;-3.90
69007;BMP180;56061;51.748;19.620;2023-03-29T05:19:30;99433.60;;;-3.80
69007;BMP180;56061;51.748;19.620;2023-03-29T05:21:57;99429.20;;;-3.70
69007;BMP180;56061;51.748;19.620;2023-03-29T05:24:24;99431.40;;;-3.60
69007;BMP180;56061;51.748;19.620;2023-03-29T05:26:51;99429.80;;;-3.60
69007;BMP180;56061;51.748;19.620;2023-03-29T05:29:17;99437.20;;;-3.50
69007;BMP180;56061;51.748;19.620;2023-03-29T05:31:44;99440.20;;;-3.50
69007;BMP180;56061;51.748;19.620;2023-03-29T05:34:12;99443.40;;;-3.40
69007;BMP180;56061;51.748;19.620;2023-03-29T05:36:38;99447.20;;;-3.40
69007;BMP180;56061;51.748;19.620;2023-03-29T05:39:05;99446.60;;;-3.30
69007;BMP180;56061;51.748;19.620;2023-03-29T05:41:32;99444.40;;;-3.30
69007;BMP180;56061;51.748;19.620;2023-03-29T05:43:59;99438.80;;;-3.20
69007;BMP180;56061;51.748;19.620;2023-03-29T05:46:27;99440.60;;;-3.20
69007;BMP180;56061;51.748;19.620;2023-03-29T05:48:53;99441.60;;;-3.10
69007;BMP180;56061;51.748;19.620;2023-03-29T05:51:20;99445.80;;;-3.06
69007;BMP180;56061;51.748;19.620;2023-03-29T05:53:50;99444.20;;;-3.00
69007;BMP180;56061;51.748;19.620;2023-03-29T05:56:17;99446.20;;;-2.90
69007;BMP180;56061;51.748;19.620;2023-03-29T05:58:44;99450.00;;;-2.90
69007;BMP180;56061;51.748;19.620;2023-03-29T06:01:15;99448.60;;;-2.80
69007;BMP180;56061;51.748;19.620;2023-03-29T06:03:43;99442.80;;;-2.70
69007;BMP180;56061;51.748;19.620;2023-03-29T06:06:12;99442.80;;;-2.64
69007;BMP180;56061;51.748;19.620;2023-03-29T06:08:43;99444.40;;;-2.60
69007;BMP180;56061;51.748;19.620;2023-03-29T06:11:11;99445.00;;;-2.50
69007;BMP180;56061;51.748;19.620;2023-03-29T06:13:39;99439.80;;;-2.40
69007;BMP180;56061;51.748;19.620;2023-03-29T06:16:09;99446.20;;;-2.30
69007;BMP180;56061;51.748;19.620;2023-03-29T06:18:36;99444.80;;;-2.16
69007;BMP180;56061;51.748;19.620;2023-03-29T06:21:05;99443.20;;;-2.00
69007;BMP180;56061;51.748;19.620;2023-03-29T06:23:33;99445.40;;;-1.90
69007;BMP180;56061;51.748;19.620;2023-03-29T06:26:00;99440.00;;;-1.80
69007;BMP180;56061;51.748;19.620;2023-03-29T06:28:26;99440.40;;;-1.72
69007;BMP180;56061;51.748;19.620;2023-03-29T06:30:53;99443.00;;;-1.60
69007;BMP180;56061;51.748;19.620;2023-03-29T06:33:22;99446.00;;;-1.50
69007;BMP180;56061;51.748;19.620;2023-03-29T06:35:49;99445.80;;;-1.40
69007;BMP180;56061;51.748;19.620;2023-03-29T06:38:16;99444.80;;;-1.36
69007;BMP180;56061;51.748;19.620;2023-03-29T06:40:42;99444.60;;;-1.26
69007;BMP180;56061;51.748;19.620;2023-03-29T06:43:10;99439.80;;;-1.20
69007;BMP180;56061;51.748;19.620;2023-03-29T06:45:38;99444.20;;;-1.10
69007;BMP180;56061;51.748;19.620;2023-03-29T06:48:06;99435.40;;;-1.00
69007;BMP180;56061;51.748;19.620;2023-03-29T06:50:34;99437.00;;;-0.90
69007;BMP180;56061;51.748;19.620;2023-03-29T06:53:01;99440.80;;;-0.80
69007;BMP180;56061;51.748;19.620;2023-03-29T06:55:29;99438.40;;;-0.70
69007;BMP180;56061;51.748;19.620;2023-03-29T06:57:56;99433.60;;;-0.60
69007;BMP180;56061;51.748;19.620;2023-03-29T07:00:27;99431.60;;;-0.50
69007;BMP180;56061;51.748;19.620;2023-03-29T07:02:55;99431.40;;;-0.40
69007;BMP180;56061;51.748;19.620;2023-03-29T07:05:26;99434.00;;;-0.28
69007;BMP180;56061;51.748;19.620;2023-03-29T07:07:53;99432.40;;;-0.16
69007;BMP180;56061;51.748;19.620;2023-03-29T07:10:28;99428.80;;;-0.08
69007;BMP180;56061;51.748;19.620;2023-03-29T07:12:59;99429.60;;;0.00
69007;BMP180;56061;51.748;19.620;2023-03-29T07:15:27;99421.00;;;0.10
69007;BMP180;56061;51.748;19.620;2023-03-29T07:17:54;99425.40;;;0.20
69007;BMP180;56061;51.748;19.620;2023-03-29T07:20:21;99422.80;;;0.30
69007;BMP180;56061;51.748;19.620;2023-03-29T07:22:49;99423.60;;;0.40
69007;BMP180;56061;51.748;19.620;2023-03-29T07:25:22;99418.40;;;0.50
69007;BMP180;56061;51.748;19.620;2023-03-29T07:27:50;99420.60;;;0.60
69007;BMP180;56061;51.748;19.620;2023-03-29T07:30:21;99417.80;;;0.70
69007;BMP180;56061;51.748;19.620;2023-03-29T07:32:50;99417.00;;;0.78
69007;BMP180;56061;51.748;19.620;2023-03-29T07:35:17;99415.40;;;0.90
69007;BMP180;56061;51.748;19.620;2023-03-29T07:37:44;99410.20;;;0.98
69007;BMP180;56061;51.748;19.620;2023-03-29T07:40:15;99412.40;;;1.04
69007;BMP180;56061;51.748;19.620;2023-03-29T07:42:45;99407.60;;;1.14
69007;BMP180;56061;51.748;19.620;2023-03-29T07:45:14;99413.60;;;1.28
69007;BMP180;56061;51.748;19.620;2023-03-29T07:47:57;99414.80;;;1.40
69007;BMP180;56061;51.748;19.620;2023-03-29T07:50:26;99412.80;;;1.50
69007;BMP180;56061;51.748;19.620;2023-03-29T07:52:52;99411.00;;;1.58
69007;BMP180;56061;51.748;19.620;2023-03-29T07:55:20;99411.00;;;1.68
69007;BMP180;56061;51.748;19.620;2023-03-29T07:57:48;99411.00;;;1.70
69007;BMP180;56061;51.748;19.620;2023-03-29T08:00:16;99413.60;;;1.80
69007;BMP180;56061;51.748;19.620;2023-03-29T08:02:48;99408.60;;;1.90
69007;BMP180;56061;51.748;19.620;2023-03-29T08:05:20;99411.20;;;1.94
69007;BMP180;56061;51.748;19.620;2023-03-29T08:08:06;99406.60;;;2.00
69007;BMP180;56061;51.748;19.620;2023-03-29T08:10:36;99404.60;;;2.10
69007;BMP180;56061;51.748;19.620;2023-03-29T08:13:06;99405.00;;;2.16
69007;BMP180;56061;51.748;19.620;2023-03-29T08:15:35;99409.00;;;2.22
69007;BMP180;56061;51.748;19.620;2023-03-29T08:18:07;99403.80;;;2.30
69007;BMP180;56061;51.748;19.620;2023-03-29T08:20:34;99396.40;;;2.42
69007;BMP180;56061;51.748;19.620;2023-03-29T08:23:00;99394.80;;;2.54
69007;BMP180;56061;51.748;19.620;2023-03-29T08:25:27;99388.40;;;2.70
69007;BMP180;56061;51.748;19.620;2023-03-29T08:27:53;99396.20;;;2.80
69007;BMP180;56061;51.748;19.620;2023-03-29T08:30:20;99386.00;;;2.90
69007;BMP180;56061;51.748;19.620;2023-03-29T08:32:47;99386.80;;;3.00
69007;BMP180;56061;51.748;19.620;2023-03-29T08:35:17;99381.80;;;3.10
69007;BMP180;56061;51.748;19.620;2023-03-29T08:37:44;99386.60;;;3.20
69007;BMP180;56061;51.748;19.620;2023-03-29T08:40:21;99384.20;;;3.20
69007;BMP180;56061;51.748;19.620;2023-03-29T08:43:05;99378.20;;;3.20
69007;BMP180;56061;51.748;19.620;2023-03-29T08:45:58;99381.40;;;3.30
69007;BMP180;56061;51.748;19.620;2023-03-29T08:48:34;99383.00;;;3.30
69007;BMP180;56061;51.748;19.620;2023-03-29T08:51:34;99377.00;;;3.30
69007;BMP180;56061;51.748;19.620;2023-03-29T08:54:05;99369.00;;;3.40
69007;BMP180;56061;51.748;19.620;2023-03-29T08:56:35;99366.20;;;3.40
69007;BMP180;56061;51.748;19.620;2023-03-29T08:59:14;99363.80;;;3.50
69007;BMP180;56061;51.748;19.620;2023-03-29T09:01:42;99367.60;;;3.58
69007;BMP180;56061;51.748;19.620;2023-03-29T09:04:16;99359.40;;;3.60
69007;BMP180;56061;51.748;19.620;2023-03-29T09:06:44;99360.80;;;3.70
69007;BMP180;56061;51.748;19.620;2023-03-29T09:09:18;99359.80;;;3.80
69007;BMP180;56061;51.748;19.620;2023-03-29T09:23:16;99353.80;;;4.10
69007;BMP180;56061;51.748;19.620;2023-03-29T09:26:06;99351.20;;;4.22
69007;BMP180;56061;51.748;19.620;2023-03-29T09:28:43;99358.20;;;4.30
69007;BMP180;56061;51.748;19.620;2023-03-29T09:31:23;99357.00;;;4.30
69007;BMP180;56061;51.748;19.620;2023-03-29T09:34:10;99355.00;;;4.40
69007;BMP180;56061;51.748;19.620;2023-03-29T09:37:03;99351.60;;;4.44
69007;BMP180;56061;51.748;19.620;2023-03-29T09:39:32;99348.60;;;4.50
69007;BMP180;56061;51.748;19.620;2023-03-29T09:42:03;99343.80;;;4.56
69007;BMP180;56061;51.748;19.620;2023-03-29T09:44:38;99347.20;;;4.66
69007;BMP180;56061;51.748;19.620;2023-03-29T09:47:16;99346.80;;;4.70
69007;BMP180;56061;51.748;19.620;2023-03-29T09:49:59;99336.20;;;4.80
69007;BMP180;56061;51.748;19.620;2023-03-29T09:52:27;99340.80;;;4.80
69007;BMP180;56061;51.748;19.620;2023-03-29T09:54:55;99346.00;;;4.90
69007;BMP180;56061;51.748;19.620;2023-03-29T09:57:22;99342.80;;;4.90
69007;BMP180;56061;51.748;19.620;2023-03-29T09:59:50;99338.80;;;4.90
69007;BMP180;56061;51.748;19.620;2023-03-29T10:02:19;99340.20;;;4.90
69007;BMP180;56061;51.748;19.620;2023-03-29T10:04:54;99335.80;;;4.96
69007;BMP180;56061;51.748;19.620;2023-03-29T10:07:39;99338.80;;;5.00
69007;BMP180;56061;51.748;19.620;2023-03-29T10:10:21;99328.40;;;5.10
69007;BMP180;56061;51.748;19.620;2023-03-29T10:12:52;99326.40;;;5.20
69007;BMP180;56061;51.748;19.620;2023-03-29T10:15:20;99325.00;;;5.24
69007;BMP180;56061;51.748;19.620;2023-03-29T10:18:01;99330.80;;;5.30
69007;BMP180;56061;51.748;19.620;2023-03-29T10:20:29;99330.80;;;5.30
69007;BMP180;56061;51.748;19.620;2023-03-29T10:22:58;99324.40;;;5.30
69007;BMP180;56061;51.748;19.620;2023-03-29T10:25:29;99325.00;;;5.40
69007;BMP180;56061;51.748;19.620;2023-03-29T10:28:06;99318.80;;;5.40
69007;BMP180;56061;51.748;19.620;2023-03-29T10:30:35;99320.20;;;5.48
69007;BMP180;56061;51.748;19.620;2023-03-29T10:33:06;99314.20;;;5.50
69007;BMP180;56061;51.748;19.620;2023-03-29T10:35:40;99311.80;;;5.60
69007;BMP180;56061;51.748;19.620;2023-03-29T10:38:14;99314.60;;;5.70
69007;BMP180;56061;51.748;19.620;2023-03-29T10:40:54;99311.60;;;5.84
69007;BMP180;56061;51.748;19.620;2023-03-29T10:43:26;99312.00;;;5.90
69007;BMP180;56061;51.748;19.620;2023-03-29T10:46:19;99309.60;;;6.00
69007;BMP180;56061;51.748;19.620;2023-03-29T10:48:58;99303.00;;;6.10
69007;BMP180;56061;51.748;19.620;2023-03-29T10:51:28;99294.60;;;6.10
69007;BMP180;56061;51.748;19.620;2023-03-29T10:53:58;99287.60;;;6.20
69007;BMP180;56061;51.748;19.620;2023-03-29T10:56:36;99291.80;;;6.20
69007;BMP180;56061;51.748;19.620;2023-03-29T11:17:20;99274.20;;;6.70
69007;BMP180;56061;51.748;19.620;2023-03-29T11:20:23;99277.60;;;6.72
69007;BMP180;56061;51.748;19.620;2023-03-29T11:26:12;99262.20;;;6.78
69007;BMP180;56061;51.748;19.620;2023-03-29T11:29:02;99264.00;;;6.80
69007;BMP180;56061;51.748;19.620;2023-03-29T11:37:34;99267.20;;;7.10
69007;BMP180;56061;51.748;19.620;2023-03-29T11:40:21;99253.00;;;7.10
69007;BMP180;56061;51.748;19.620;2023-03-29T11:42:59;99248.80;;;7.16
69007;BMP180;56061;51.748;19.620;2023-03-29T11:45:35;99243.40;;;7.28
69007;BMP180;56061;51.748;19.620;2023-03-29T11:48:17;99238.60;;;7.30
69007;BMP180;56061;51.748;19.620;2023-03-29T11:51:09;99240.40;;;7.40
69007;BMP180;56061;51.748;19.620;2023-03-29T11:53:51;99230.40;;;7.50
69007;BMP180;56061;51.748;19.620;2023-03-29T11:56:30;99224.20;;;7.60
69007;BMP180;56061;51.748;19.620;2023-03-29T12:02:17;99216.80;;;7.72
69007;BMP180;56061;51.748;19.620;2023-03-29T12:04:57;99210.40;;;7.70
69007;BMP180;56061;51.748;19.620;2023-03-29T12:07:34;99205.80;;;7.70
69007;BMP180;56061;51.748;19.620;2023-03-29T12:10:22;99203.60;;;7.74
69007;BMP180;56061;51.748;19.620;2023-03-29T12:13:10;99195.20;;;7.84
69007;BMP180;56061;51.748;19.620;2023-03-29T12:15:46;99198.20;;;8.00
69007;BMP180;56061;51.748;19.620;2023-03-29T12:18:26;99190.60;;;8.10
69007;BMP180;56061;51.748;19.620;2023-03-29T12:21:01;99197.60;;;8.24
69007;BMP180;56061;51.748;19.620;2023-03-29T12:23:31;99196.20;;;8.36
69007;BMP180;56061;51.748;19.620;2023-03-29T12:26:21;99197.40;;;8.50
69007;BMP180;56061;51.748;19.620;2023-03-29T12:38:18;99185.40;;;8.60
69007;BMP180;56061;51.748;19.620;2023-03-29T12:40:53;99183.40;;;8.64
69007;BMP180;56061;51.748;19.620;2023-03-29T12:43:30;99179.40;;;8.70
69007;BMP180;56061;51.748;19.620;2023-03-29T12:46:13;99172.00;;;8.70
69007;BMP180;56061;51.748;19.620;2023-03-29T12:48:44;99170.00;;;8.78
69007;BMP180;56061;51.748;19.620;2023-03-29T12:51:20;99161.80;;;8.80
69007;BMP180;56061;51.748;19.620;2023-03-29T12:54:02;99155.80;;;8.92
69007;BMP180;56061;51.748;19.620;2023-03-29T12:59:44;99152.20;;;9.30
69007;BMP180;56061;51.748;19.620;2023-03-29T13:09:54;99147.40;;;9.60
69007;BMP180;56061;51.748;19.620;2023-03-29T13:12:29;99150.20;;;9.70
69007;BMP180;56061;51.748;19.620;2023-03-29T13:15:30;99147.40;;;9.70
69007;BMP180;56061;51.748;19.620;2023-03-29T13:21:25;99151.00;;;9.70
69007;BMP180;56061;51.748;19.620;2023-03-29T13:24:26;99137.20;;;9.62
69007;BMP180;56061;51.748;19.620;2023-03-29T13:30:49;99132.60;;;9.80
69007;BMP180;56061;51.748;19.620;2023-03-29T13:39:51;99121.60;;;10.20
69007;BMP180;56061;51.748;19.620;2023-03-29T13:42:39;99121.00;;;10.30
69007;BMP180;56061;51.748;19.620;2023-03-29T13:45:22;99113.40;;;10.40
69007;BMP180;56061;51.748;19.620;2023-03-29T13:50:37;99101.40;;;10.50
69007;BMP180;56061;51.748;19.620;2023-03-29T13:53:19;99101.40;;;10.60
69007;BMP180;56061;51.748;19.620;2023-03-29T13:55:51;99101.00;;;10.60
69007;BMP180;56061;51.748;19.620;2023-03-29T13:58:42;99099.60;;;10.70
69007;BMP180;56061;51.748;19.620;2023-03-29T14:03:57;99101.60;;;10.90
69007;BMP180;56061;51.748;19.620;2023-03-29T14:06:30;99101.00;;;10.92
69007;BMP180;56061;51.748;19.620;2023-03-29T14:09:04;99106.80;;;11.02
69007;BMP180;56061;51.748;19.620;2023-03-29T14:11:33;99101.20;;;11.10
69007;BMP180;56061;51.748;19.620;2023-03-29T14:14:02;99101.60;;;11.16
69007;BMP180;56061;51.748;19.620;2023-03-29T14:16:36;99102.60;;;11.20
69007;BMP180;56061;51.748;19.620;2023-03-29T14:19:18;99100.00;;;11.20
69007;BMP180;56061;51.748;19.620;2023-03-29T14:21:48;99093.00;;;11.32
69007;BMP180;56061;51.748;19.620;2023-03-29T14:24:24;99096.80;;;11.40
69007;BMP180;56061;51.748;19.620;2023-03-29T14:26:53;99088.60;;;11.50
69007;BMP180;56061;51.748;19.620;2023-03-29T14:29:19;99087.40;;;11.56
69007;BMP180;56061;51.748;19.620;2023-03-29T14:31:49;99086.00;;;11.62
69007;BMP180;56061;51.748;19.620;2023-03-29T14:34:17;99082.80;;;11.70
69007;BMP180;56061;51.748;19.620;2023-03-29T14:36:46;99088.00;;;11.70
69007;BMP180;56061;51.748;19.620;2023-03-29T14:39:21;99085.60;;;11.80
69007;BMP180;56061;51.748;19.620;2023-03-29T14:41:55;99083.20;;;11.80
69007;BMP180;56061;51.748;19.620;2023-03-29T14:44:26;99079.40;;;11.80
69007;BMP180;56061;51.748;19.620;2023-03-29T14:46:54;99075.60;;;11.90
69007;BMP180;56061;51.748;19.620;2023-03-29T14:49:22;99083.40;;;11.90
69007;BMP180;56061;51.748;19.620;2023-03-29T14:51:51;99080.20;;;11.90
69007;BMP180;56061;51.748;19.620;2023-03-29T14:54:32;99084.60;;;11.90
69007;BMP180;56061;51.748;19.620;2023-03-29T14:57:03;99081.40;;;11.94
69007;BMP180;56061;51.748;19.620;2023-03-29T14:59:42;99072.80;;;11.98
69007;BMP180;56061;51.748;19.620;2023-03-29T15:02:29;99068.20;;;11.92
69007;BMP180;56061;51.748;19.620;2023-03-29T15:05:05;99067.00;;;12.00
69007;BMP180;56061;51.748;19.620;2023-03-29T15:07:34;99062.80;;;12.00
69007;BMP180;56061;51.748;19.620;2023-03-29T15:10:04;99060.00;;;12.00
69007;BMP180;56061;51.748;19.620;2023-03-29T15:12:33;99063.40;;;12.00
69007;BMP180;56061;51.748;19.620;2023-03-29T15:15:00;99061.80;;;12.10
69007;BMP180;56061;51.748;19.620;2023-03-29T15:17:34;99069.20;;;12.00
69007;BMP180;56061;51.748;19.620;2023-03-29T15:20:23;99062.20;;;11.80
69007;BMP180;56061;51.748;19.620;2023-03-29T15:23:08;99059.60;;;11.50
69007;BMP180;56061;51.748;19.620;2023-03-29T15:25:44;99061.20;;;11.30
69007;BMP180;56061;51.748;19.620;2023-03-29T15:28:30;99064.40;;;11.10
69007;BMP180;56061;51.748;19.620;2023-03-29T15:31:10;99061.80;;;11.00
69007;BMP180;56061;51.748;19.620;2023-03-29T15:33:41;99058.60;;;10.90
69007;BMP180;56061;51.748;19.620;2023-03-29T15:36:11;99055.80;;;10.80
69007;BMP180;56061;51.748;19.620;2023-03-29T15:38:41;99056.00;;;10.70
69007;BMP180;56061;51.748;19.620;2023-03-29T15:41:12;99053.00;;;10.60
69007;BMP180;56061;51.748;19.620;2023-03-29T15:43:40;99057.60;;;10.40
69007;BMP180;56061;51.748;19.620;2023-03-29T15:46:08;99054.60;;;10.26
69007;BMP180;56061;51.748;19.620;2023-03-29T15:48:36;99052.60;;;10.10
69007;BMP180;56061;51.748;19.620;2023-03-29T15:51:03;99057.20;;;9.92
69007;BMP180;56061;51.748;19.620;2023-03-29T15:53:32;99060.00;;;9.80
69007;BMP180;56061;51.748;19.620;2023-03-29T15:56:00;99056.20;;;9.72
69007;BMP180;56061;51.748;19.620;2023-03-29T15:58:31;99053.40;;;9.64
69007;BMP180;56061;51.748;19.620;2023-03-29T16:01:30;99050.00;;;9.54
69007;BMP180;56061;51.748;19.620;2023-03-29T16:04:11;99047.20;;;9.40
69007;BMP180;56061;51.748;19.620;2023-03-29T16:06:40;99044.40;;;9.30
69007;BMP180;56061;51.748;19.620;2023-03-29T16:09:07;99044.20;;;9.12
69007;BMP180;56061;51.748;19.620;2023-03-29T16:11:39;99043.20;;;9.00
69007;BMP180;56061;51.748;19.620;2023-03-29T16:16:42;99041.60;;;8.90